Rhinelander Oneida County Airport
KRHI : rendu visible

Aérodrome :











RETROUVEZ-NOUS SUR...

 
LOGIN :

S'inscrire | Disclaimer

   EN    FR    IT 

 









Légende :    VFR   VFR Marginal   IFR   IFR Intensif   IFR Très Intensif
Visi : 
Plafond : 
>= 8 km
>= 3000ft
5 à 8 km
1000 à 3000 ft
1500m à 5 km
500 à 1000 ft
800 à 1500m
200 à 500 ft
< 800m
< 200 ft
Symboles :   Orages  Brouillard  Fortes neiges  Fortes précipitations  Vent > 20 kt






- Altitude de l'aérodrome : 1624 ft
- Code IATA : RHI


KRHI - Rhinelander Oneida County

DERNIER METAR :
  • 231653Z AUTO 24011KT 10SM CLR 04/M04 A2970 RMK AO2 SLP073 T00441039 $

METARs EXPIRÉS :
  • 231553Z AUTO 25010G19KT 10SM CLR 02/M04 A2971 RMK AO2 SLP078 T00171039 $
  • 231453Z AUTO 24008KT 7SM FEW006 M01/M03 A2973 RMK AO2 SLP084 T10111033 55002 $
  • 231429Z AUTO 23007KT 6SM BR SCT006 M02/M03 A2972 RMK AO2 T10171033 $

TAF KRHI
Valide du 23 à 12h jusqu'au 24 à 12h UTC


231130Z 2312/2412 23008G15KT P6SM BKN008
TEMPO 2312/2314 4SM BR
FM231500 25011G18KT P6SM SCT250 WS016/29035KT
FM240100 28007KT P6SM BKN250
FM240800 30005KT P6SM BKN012



MET'MAP, la Météo Aéronautique d'un coup d'oeil ! - Copyright ORBIFLY Décembre 2007 - Disclaimer

ORBIFLY MET'MAP TEAM :

Programmation & Développement : Alexandra Zaïnal
Sur une idée originale de : Baudouin d'Aumeries
Assistance à la programmation : Marc-Olivier Méhu
Soutien technique & logistique : Manuel Goepfert

Contact : metmap@orbifly.com




SOURCES & CREDITS :

   NOAA       Earth
Advisory